DAAJ/DJG METAR and TAF weather

Enter ICAO airport designator
Station Type Date Time Source
DAAJ METAR 2022/11/26 08:00 UTC NOAA

DAAJ 260800Z VRB02KT CAVOK 13/M01 Q1023


Station Type Date Time Source
DAAJ Decoded METAR 2022/11/26 08:00 UTC NOAA

Djanet, Algeria (DAAJ) 24-33N 009-28E 1054M
Nov 26, 2022 - 03:00 AM EST / 2022.11.26 0800 UTC
Wind: Variable at 2 MPH (2 KT):0
Visibility: greater than 7 mile(s):0
Temperature: 55 F (13 C)
Dew Point: 30 F (-1 C)
Relative Humidity: 37%
Pressure (altimeter): 30.21 in. Hg (1023 hPa)
ob: DAAJ 260800Z VRB02KT CAVOK 13/M01 Q1023
cycle: 8

Station Type Date Time Source
DAAJ TAF 2022/11/26 06:33 UTC NOAA

TAF DAAJ 260500Z 2606/2706 VRB02KT CAVOK

Example: see airport list